Time;durP1;ratioP1;P1;durP2;ratioP2;P2;SDS_P1;SDS_P2;PMS_P1;PMS_P2;Temp;Humidity;BMP_temperature;BMP_pressure;BME280_temperature;BME280_humidity;BME280_pressure;Samples;Min_cycle;Max_cycle;Signal;HPM_P1;HPM_P2
2022/07/14 00:01:25;;;;;;;7.40;3.80;;;;;;;21.87;60.19;100138.73;104433;1274;99851;-72
2022/07/14 00:03:53;;;;;;;6.80;3.90;;;;;;;21.86;60.08;100138.86;104188;1274;137987;-72
2022/07/14 00:06:21;;;;;;;7.30;3.80;;;;;;;21.85;59.95;100137.51;104290;1274;95248;-73
2022/07/14 00:08:49;;;;;;;6.70;3.70;;;;;;;21.82;60.18;100133.00;104348;1274;95121;-72
2022/07/14 00:11:17;;;;;;;6.60;3.70;;;;;;;21.76;60.22;100128.97;104168;1274;138569;-73
2022/07/14 00:13:44;;;;;;;8.20;4.20;;;;;;;21.75;60.28;100128.10;104332;1274;99480;-72
2022/07/14 00:16:12;;;;;;;7.20;4.30;;;;;;;21.74;60.22;100127.66;104204;1274;138759;-73
2022/07/14 00:18:43;;;;;;;7.40;4.20;;;;;;;21.67;60.15;100125.27;104324;1274;95262;-73
2022/07/14 00:21:15;;;;;;;9.30;4.30;;;;;;;21.66;60.18;100124.27;104235;1274;138188;-71
2022/07/14 00:23:46;;;;;;;7.60;3.80;;;;;;;21.69;60.25;100121.12;104363;1274;109766;-73
2022/07/14 00:26:14;;;;;;;7.20;4.00;;;;;;;21.70;60.17;100122.69;104370;1274;99369;-72
2022/07/14 00:28:42;;;;;;;6.20;4.30;;;;;;;21.65;60.30;100126.00;104213;1274;138209;-72
2022/07/14 00:31:11;;;;;;;8.80;4.10;;;;;;;21.60;60.29;100119.57;104359;1274;96607;-73
2022/07/14 00:33:39;;;;;;;7.30;4.10;;;;;;;21.58;60.36;100118.26;104287;1274;138300;-72
2022/07/14 00:36:08;;;;;;;7.40;3.80;;;;;;;21.47;60.48;100117.77;104313;1274;109648;-74
2022/07/14 00:38:37;;;;;;;8.20;4.00;;;;;;;21.38;60.84;100119.34;104347;1274;100010;-73
2022/07/14 00:41:05;;;;;;;7.90;4.20;;;;;;;21.29;61.02;100116.38;104332;1274;138956;-72
2022/07/14 00:43:33;;;;;;;6.80;4.40;;;;;;;21.25;61.38;100115.86;104375;1274;95544;-73
2022/07/14 00:46:01;;;;;;;6.90;4.00;;;;;;;21.20;61.36;100120.12;104215;1274;138742;-74
2022/07/14 00:48:30;;;;;;;7.50;4.60;;;;;;;21.14;61.41;100117.55;104269;1274;109756;-73
2022/07/14 00:50:58;;;;;;;6.70;4.00;;;;;;;21.12;61.66;100116.05;104354;1276;97505;-72
2022/07/14 00:53:26;;;;;;;7.50;4.40;;;;;;;21.08;61.90;100108.58;104173;1277;139518;-73
2022/07/14 00:55:53;;;;;;;7.70;4.30;;;;;;;21.03;61.86;100107.52;104215;1277;95628;-73
2022/07/14 00:58:22;;;;;;;8.50;4.40;;;;;;;20.96;62.17;100100.85;104238;1277;138695;-72
2022/07/14 01:00:50;;;;;;;8.10;4.30;;;;;;;20.95;62.05;100104.69;104414;1277;109863;-72
2022/07/14 01:03:18;;;;;;;7.40;4.20;;;;;;;20.93;62.15;100111.70;104284;1276;138317;-74
2022/07/14 01:05:46;;;;;;;7.20;4.30;;;;;;;20.91;62.31;100110.05;104265;1276;108885;-73
2022/07/14 01:08:14;;;;;;;8.10;4.30;;;;;;;20.91;62.14;100112.27;104202;1276;95306;-74
2022/07/14 01:10:42;;;;;;;7.20;4.60;;;;;;;20.92;62.21;100117.58;104235;1276;138238;-73
2022/07/14 01:13:10;;;;;;;7.80;5.00;;;;;;;20.95;62.29;100118.63;104203;1276;110237;-73
2022/07/14 01:15:38;;;;;;;7.00;4.10;;;;;;;20.82;62.46;100119.76;104207;1276;139179;-73
2022/07/14 01:18:06;;;;;;;6.70;4.30;;;;;;;20.77;62.54;100126.58;104230;1277;108771;-73
2022/07/14 01:20:34;;;;;;;8.00;4.70;;;;;;;20.80;62.52;100127.84;104302;1276;95191;-73
2022/07/14 01:23:02;;;;;;;7.70;4.50;;;;;;;20.75;62.55;100126.56;104090;1276;138341;-73
2022/07/14 01:25:31;;;;;;;7.30;4.60;;;;;;;20.72;62.72;100126.77;104168;1277;109698;-73
2022/07/14 01:27:59;;;;;;;7.30;4.60;;;;;;;20.68;62.81;100126.36;104132;1276;138663;-72
2022/07/14 01:30:28;;;;;;;8.00;4.50;;;;;;;20.63;62.70;100125.41;104290;1276;108775;-73
2022/07/14 01:32:57;;;;;;;9.10;4.70;;;;;;;20.63;62.85;100125.04;104226;1276;95564;-71
2022/07/14 01:35:25;;;;;;;7.70;4.70;;;;;;;20.63;62.64;100125.55;104372;1277;138835;-72
2022/07/14 01:37:53;;;;;;;7.20;4.80;;;;;;;20.59;62.64;100122.48;104326;1276;110184;-73
2022/07/14 01:40:22;;;;;;;8.30;4.20;;;;;;;20.57;62.66;100121.20;104074;1276;138642;-74
2022/07/14 01:42:50;;;;;;;7.40;4.40;;;;;;;20.53;62.89;100114.41;104258;1277;109174;-73
2022/07/14 01:45:18;;;;;;;6.90;4.20;;;;;;;20.52;63.06;100116.86;104202;1276;138807;-73
2022/07/14 01:47:46;;;;;;;7.50;4.40;;;;;;;20.48;63.11;100112.63;104173;1276;95052;-74
2022/07/14 01:50:15;;;;;;;7.30;4.40;;;;;;;20.46;62.91;100113.27;104284;1275;109752;-73
2022/07/14 01:52:44;;;;;;;7.10;4.20;;;;;;;20.44;62.96;100113.23;104127;1274;139616;-73
2022/07/14 01:55:12;;;;;;;8.00;4.60;;;;;;;20.45;63.00;100121.09;104224;1274;107154;-73
2022/07/14 01:57:42;;;;;;;9.00;4.40;;;;;;;20.48;63.03;100121.03;104237;1274;138977;-73
2022/07/14 02:00:10;;;;;;;6.80;4.30;;;;;;;20.46;62.77;100120.48;104272;1274;95660;-74
2022/07/14 02:02:47;;;;;;;7.90;4.60;;;;;;;20.47;62.74;100118.63;104359;1274;109744;-73
2022/07/14 02:05:16;;;;;;;7.10;4.40;;;;;;;20.46;62.68;100119.81;104285;1274;138736;-73
2022/07/14 02:07:44;;;;;;;8.10;4.60;;;;;;;20.41;62.94;100121.59;104187;1275;108688;-73
2022/07/14 02:13:14;;;;;;;9.40;4.80;;;;;;;20.39;62.91;100128.23;103833;1277;95134;-73
2022/07/14 02:15:42;;;;;;;7.90;4.60;;;;;;;20.32;63.01;100120.07;104028;1275;140560;-73
2022/07/14 02:18:10;;;;;;;6.90;4.20;;;;;;;20.31;62.89;100121.91;104276;1274;99041;-73
2022/07/14 02:20:38;;;;;;;7.30;4.30;;;;;;;20.31;62.87;100129.88;104358;1274;107544;-73
2022/07/14 02:23:06;;;;;;;8.20;4.10;;;;;;;20.28;62.71;100133.52;104142;1274;138198;-73
2022/07/14 02:25:35;;;;;;;7.40;4.50;;;;;;;20.26;62.76;100127.88;104338;1274;95738;-73
2022/07/14 02:28:03;;;;;;;7.60;4.50;;;;;;;20.27;62.87;100129.63;104285;1274;138751;-73
2022/07/14 02:30:31;;;;;;;6.40;4.10;;;;;;;20.25;62.77;100126.14;104289;1275;99416;-73
2022/07/14 02:33:00;;;;;;;9.70;3.90;;;;;;;20.21;62.76;100129.14;104456;1274;108828;-74
2022/07/14 02:35:28;;;;;;;7.00;4.20;;;;;;;20.16;62.97;100133.99;104470;1274;95217;-71
2022/07/14 02:37:57;;;;;;;8.30;4.50;;;;;;;20.16;62.82;100138.36;104329;1274;95774;-73
2022/07/14 02:40:26;;;;;;;7.30;4.10;;;;;;;20.15;62.94;100136.97;104352;1274;138858;-73
2022/07/14 02:42:54;;;;;;;7.30;4.00;;;;;;;20.14;62.93;100141.91;104294;1274;100050;-73
2022/07/14 02:45:22;;;;;;;6.80;4.10;;;;;;;20.14;62.68;100139.36;104325;1274;139238;-73
2022/07/14 02:47:50;;;;;;;7.80;4.10;;;;;;;20.13;62.76;100138.17;104309;1277;95348;-73
2022/07/14 02:50:18;;;;;;;9.40;4.70;;;;;;;20.10;63.13;100140.94;104410;1275;95630;-72
2022/07/14 02:52:46;;;;;;;7.40;4.20;;;;;;;20.08;62.91;100143.09;104200;1274;139089;-72
2022/07/14 02:55:14;;;;;;;7.00;4.20;;;;;;;20.08;63.01;100141.92;104333;1275;99718;-73
2022/07/14 02:57:44;;;;;;;8.20;4.50;;;;;;;20.09;63.03;100134.48;104332;1274;139406;-73
2022/07/14 03:00:13;;;;;;;7.80;4.00;;;;;;;20.08;62.94;100139.80;104422;1274;95636;-74
2022/07/14 03:02:42;;;;;;;7.40;4.40;;;;;;;20.12;62.82;100138.92;104355;1274;95112;-74
2022/07/14 03:05:11;;;;;;;6.70;4.10;;;;;;;20.13;62.88;100132.02;104230;1274;139086;-73
2022/07/14 03:07:38;;;;;;;7.30;4.40;;;;;;;20.15;62.82;100139.44;104360;1275;99803;-74
2022/07/14 03:10:08;;;;;;;7.30;4.30;;;;;;;20.17;62.74;100140.61;104082;1277;138749;-74
2022/07/14 03:12:36;;;;;;;7.20;4.20;;;;;;;20.16;62.64;100144.39;104290;1277;95300;-73
2022/07/14 03:15:07;;;;;;;8.20;4.50;;;;;;;20.13;62.49;100143.04;104220;1274;139711;-72
2022/07/14 03:17:35;;;;;;;8.00;4.40;;;;;;;20.09;62.75;100148.20;104604;1274;109756;-72
2022/07/14 03:20:03;;;;;;;7.50;4.40;;;;;;;20.09;62.66;100157.20;104242;1275;98548;-73
2022/07/14 03:22:32;;;;;;;7.20;4.30;;;;;;;20.12;62.62;100158.83;104242;1274;141792;-72
2022/07/14 03:25:05;;;;;;;8.50;4.70;;;;;;;20.14;62.54;100156.10;104374;1274;95227;-73
2022/07/14 03:27:35;;;;;;;8.70;4.50;;;;;;;20.18;62.62;100154.74;104106;1274;138903;-72
2022/07/14 03:30:05;;;;;;;7.50;4.50;;;;;;;20.21;62.84;100160.66;104453;1274;109706;-72
2022/07/14 03:32:34;;;;;;;6.90;4.10;;;;;;;20.22;62.52;100161.53;104213;1277;98410;-72
2022/07/14 03:35:04;;;;;;;7.60;4.60;;;;;;;20.21;62.33;100162.84;104346;1274;139719;-72
2022/07/14 03:37:32;;;;;;;9.40;4.70;;;;;;;20.18;62.60;100165.40;104450;1274;95762;-71
2022/07/14 03:40:04;;;;;;;9.20;4.70;;;;;;;20.14;62.69;100173.40;104292;1274;138667;-73
2022/07/14 03:42:32;;;;;;;8.80;4.60;;;;;;;20.12;62.67;100169.58;104275;1275;109916;-73
2022/07/14 03:45:00;;;;;;;8.10;4.90;;;;;;;20.14;62.61;100170.04;104301;1277;99862;-73
2022/07/14 03:47:28;;;;;;;8.20;4.60;;;;;;;20.16;62.80;100172.17;104285;1274;109136;-73
2022/07/14 03:49:56;;;;;;;7.70;4.40;;;;;;;20.22;62.66;100175.23;104412;1274;95264;-74
2022/07/14 03:52:24;;;;;;;9.70;4.90;;;;;;;20.24;62.82;100169.55;104317;1274;137764;-73
2022/07/14 03:54:52;;;;;;;10.50;5.20;;;;;;;20.23;62.62;100164.15;104387;1274;109853;-73
2022/07/14 03:57:20;;;;;;;7.30;4.50;;;;;;;20.23;62.61;100159.08;104329;1274;139222;-73
2022/07/14 03:59:49;;;;;;;8.70;4.60;;;;;;;20.26;62.61;100163.19;104407;1274;108993;-73
2022/07/14 04:02:17;;;;;;;8.00;4.70;;;;;;;20.30;62.48;100164.19;104555;1274;95781;-74
2022/07/14 04:04:47;;;;;;;9.00;5.00;;;;;;;20.33;62.63;100165.41;104411;1275;140992;-74
2022/07/14 04:07:16;;;;;;;9.50;4.80;;;;;;;20.36;62.61;100166.14;104509;1274;110016;-73
2022/07/14 04:09:44;;;;;;;8.00;5.00;;;;;;;20.39;62.49;100169.52;104301;1274;142888;-72
2022/07/14 04:12:14;;;;;;;8.30;4.90;;;;;;;20.41;62.42;100171.56;104395;1274;107729;-72
2022/07/14 04:14:48;;;;;;;8.00;4.80;;;;;;;20.41;62.39;100166.89;104274;1274;95288;-72
2022/07/14 04:17:16;;;;;;;7.60;4.90;;;;;;;20.42;62.48;100165.89;104289;1277;139146;-73
2022/07/14 04:19:44;;;;;;;7.80;4.70;;;;;;;20.48;62.46;100160.80;104461;1274;109655;-74
2022/07/14 04:22:12;;;;;;;8.40;4.90;;;;;;;20.50;61.96;100161.86;104375;1274;139922;-74
2022/07/14 04:25:01;;;;;;;8.60;4.90;;;;;;;20.55;62.14;100156.27;104393;1274;108902;-74
2022/07/14 04:27:29;;;;;;;7.90;4.80;;;;;;;20.59;62.16;100152.27;104617;1277;138436;-73
2022/07/14 04:29:58;;;;;;;7.90;5.00;;;;;;;20.60;61.85;100152.50;104488;1274;95182;-73
2022/07/14 04:32:26;;;;;;;7.50;4.90;;;;;;;20.62;61.70;100157.83;104236;1274;110014;-73
2022/07/14 04:34:55;;;;;;;8.10;4.80;;;;;;;20.67;61.87;100157.98;104853;1274;139060;-72
2022/07/14 04:37:23;;;;;;;8.40;4.80;;;;;;;20.71;61.85;100156.81;104413;1276;108824;-73
2022/07/14 04:39:54;;;;;;;8.80;4.70;;;;;;;20.79;61.71;100158.78;104173;1275;138535;-72
2022/07/14 04:42:23;;;;;;;9.00;4.90;;;;;;;20.83;61.44;100156.30;104581;1274;94786;-73
2022/07/14 04:44:51;;;;;;;7.60;5.00;;;;;;;20.83;61.76;100158.30;104322;1277;108909;-74
2022/07/14 04:47:20;;;;;;;7.60;5.00;;;;;;;20.83;61.87;100155.55;104335;1274;138234;-72
2022/07/14 04:52:46;;;;;;;9.20;5.10;;;;;;;20.91;61.57;100155.55;104163;1274;138795;-73
2022/07/14 04:55:34;;;;;;;9.70;5.20;;;;;;;20.91;61.56;100153.36;104314;1276;95643;-72
2022/07/14 04:58:07;;;;;;;8.10;4.80;;;;;;;20.93;61.67;100151.61;104072;1276;139121;-73
2022/07/14 05:00:35;;;;;;;7.70;5.30;;;;;;;21.01;61.80;100151.38;104198;1274;99356;-70
2022/07/14 05:03:04;;;;;;;8.30;5.10;;;;;;;21.04;61.31;100150.61;104101;1274;139369;-72
2022/07/14 05:05:32;;;;;;;9.30;4.70;;;;;;;21.09;61.29;100152.39;104186;1275;95712;-73
2022/07/14 05:08:00;;;;;;;8.30;5.30;;;;;;;21.14;61.20;100151.98;104221;1277;95814;-74
2022/07/14 05:10:35;;;;;;;28.20;22.00;;;;;;;21.15;60.73;100149.40;104196;1275;138984;-73
2022/07/14 05:13:03;;;;;;;11.00;6.50;;;;;;;21.20;61.19;100146.50;104247;1275;99412;-72
2022/07/14 05:15:31;;;;;;;7.70;5.00;;;;;;;21.25;61.29;100151.92;104192;1277;138916;-74
2022/07/14 05:18:00;;;;;;;8.10;4.80;;;;;;;21.31;61.31;100151.64;104395;1275;96475;-73
2022/07/14 05:20:28;;;;;;;8.50;4.60;;;;;;;21.42;60.87;100151.05;104374;1275;95151;-72
2022/07/14 05:22:56;;;;;;;8.80;4.80;;;;;;;21.51;60.70;100149.81;104016;1275;138391;-73
2022/07/14 05:25:23;;;;;;;7.90;4.40;;;;;;;21.57;60.60;100144.36;104159;1277;99521;-72
2022/07/14 05:27:51;;;;;;;9.40;4.50;;;;;;;21.62;60.45;100147.96;104167;1274;138158;-72
2022/07/14 05:30:26;;;;;;;7.90;4.00;;;;;;;21.65;59.84;100151.64;104120;1277;97162;-73
2022/07/14 05:32:57;;;;;;;7.60;4.10;;;;;;;21.68;59.50;100154.34;104347;1274;95157;-72
2022/07/14 05:35:25;;;;;;;8.60;4.20;;;;;;;21.71;59.74;100157.74;104045;1275;139348;-73
2022/07/14 05:37:54;;;;;;;7.60;4.00;;;;;;;21.78;59.77;100160.03;104294;1274;99349;-72
2022/07/14 05:40:22;;;;;;;7.40;3.70;;;;;;;21.90;59.86;100166.52;104063;1277;139109;-73
2022/07/14 05:42:50;;;;;;;6.80;4.20;;;;;;;21.99;59.57;100165.88;104290;1274;95189;-72
2022/07/14 05:45:18;;;;;;;9.40;4.10;;;;;;;22.02;59.48;100168.36;104008;1277;138726;-73
2022/07/14 05:47:47;;;;;;;6.60;3.90;;;;;;;21.99;58.92;100166.73;104312;1274;109720;-72
2022/07/14 05:50:15;;;;;;;6.40;3.40;;;;;;;21.98;59.03;100175.11;104121;1277;98519;-71
2022/07/14 05:52:43;;;;;;;6.10;3.20;;;;;;;22.00;58.80;100177.91;104042;1275;138173;-71
2022/07/14 05:55:12;;;;;;;5.80;3.30;;;;;;;22.04;58.50;100181.02;104285;1275;95249;-71
2022/07/14 05:57:40;;;;;;;6.40;3.30;;;;;;;22.06;58.01;100184.09;104053;1275;138847;-71
2022/07/14 06:00:10;;;;;;;6.10;2.90;;;;;;;22.11;58.08;100179.94;104355;1274;109949;-72
2022/07/14 06:02:46;;;;;;;6.00;2.90;;;;;;;22.14;57.76;100179.15;104286;1274;98297;-72
2022/07/14 06:05:18;;;;;;;6.20;2.90;;;;;;;22.10;57.30;100180.61;104182;1274;138382;-72
2022/07/14 06:07:47;;;;;;;6.90;3.20;;;;;;;22.13;57.60;100181.92;104352;1275;95183;-73
2022/07/14 06:10:16;;;;;;;5.10;2.90;;;;;;;22.13;57.23;100186.81;104205;1274;138169;-73
2022/07/14 06:12:46;;;;;;;5.80;2.90;;;;;;;22.12;57.40;100183.86;104107;1275;108780;-70
2022/07/14 06:15:15;;;;;;;6.10;2.90;;;;;;;22.09;57.55;100180.10;104145;1274;138915;-72
2022/07/14 06:17:43;;;;;;;5.80;2.90;;;;;;;22.14;58.04;100185.66;104037;1275;109254;-72
2022/07/14 06:20:11;;;;;;;5.40;2.90;;;;;;;22.18;57.86;100181.75;104242;1274;96790;-73
2022/07/14 06:22:42;;;;;;;6.60;3.00;;;;;;;22.24;57.58;100185.21;104147;1274;138964;-73
2022/07/14 06:25:09;;;;;;;5.40;2.70;;;;;;;22.25;56.84;100183.55;104121;1277;109768;-72
2022/07/14 06:27:38;;;;;;;4.80;2.60;;;;;;;22.27;56.65;100182.86;103950;1275;139228;-73
2022/07/14 06:30:07;;;;;;;6.60;2.80;;;;;;;22.29;56.55;100177.95;104055;1275;107187;-73
2022/07/14 06:32:39;;;;;;;5.60;2.80;;;;;;;22.31;56.57;100174.91;104086;1274;95612;-72
2022/07/14 06:35:10;;;;;;;5.10;3.00;;;;;;;22.32;56.47;100173.79;104101;1277;138250;-73
2022/07/14 06:37:38;;;;;;;7.90;3.10;;;;;;;22.35;56.85;100177.34;104359;1277;107905;-72
2022/07/14 06:40:07;;;;;;;5.70;2.80;;;;;;;22.37;56.64;100178.64;104045;1277;138631;-72
2022/07/14 06:42:39;;;;;;;6.80;3.20;;;;;;;22.36;56.78;100181.02;104286;1274;108790;-71
2022/07/14 06:45:34;;;;;;;6.00;2.90;;;;;;;22.40;56.58;100180.25;103843;1275;138628;-72
2022/07/14 06:48:02;;;;;;;6.30;2.90;;;;;;;22.47;56.84;100184.22;104520;1274;95142;-72
2022/07/14 06:50:30;;;;;;;5.50;2.80;;;;;;;22.52;56.91;100181.63;104398;1274;109542;-72
2022/07/14 06:52:58;;;;;;;6.00;3.00;;;;;;;22.53;56.22;100181.89;104250;1275;139087;-72
2022/07/14 06:55:26;;;;;;;5.30;2.50;;;;;;;22.54;55.68;100174.59;104275;1274;108881;-71
2022/07/14 06:57:54;;;;;;;5.50;2.70;;;;;;;22.54;55.51;100174.73;104209;1274;138218;-72
2022/07/14 07:00:29;;;;;;;5.80;3.10;;;;;;;22.58;55.95;100175.35;104309;1274;95239;-72
2022/07/14 07:02:57;;;;;;;5.70;2.80;;;;;;;22.63;55.83;100180.05;104321;1274;109808;-72
2022/07/14 07:08:13;;;;;;;5.10;2.60;;;;;;;22.74;55.38;100175.36;104350;1275;108930;-71
2022/07/14 07:10:41;;;;;;;5.00;2.40;;;;;;;22.72;54.22;100173.29;104202;1274;138684;-72
2022/07/14 07:13:09;;;;;;;5.80;2.40;;;;;;;22.72;54.39;100177.86;104319;1274;95179;-72
2022/07/14 07:15:38;;;;;;;5.20;2.40;;;;;;;22.73;54.13;100174.35;104225;1274;138917;-71
2022/07/14 07:18:07;;;;;;;5.20;2.30;;;;;;;22.77;54.34;100172.20;104492;1275;99635;-72
2022/07/14 07:20:36;;;;;;;5.60;2.20;;;;;;;22.84;53.81;100170.36;104351;1274;108929;-70
2022/07/14 07:23:05;;;;;;;4.90;2.00;;;;;;;22.89;53.27;100169.80;104243;1274;138258;-72
2022/07/14 07:25:33;;;;;;;4.50;2.10;;;;;;;22.95;52.85;100170.77;104324;1274;95232;-71
2022/07/14 07:28:01;;;;;;;4.70;1.90;;;;;;;22.95;52.37;100167.52;104216;1275;138175;-72
2022/07/14 07:30:30;;;;;;;4.70;2.00;;;;;;;22.95;52.54;100169.15;104311;1274;99387;-72
2022/07/14 07:32:58;;;;;;;4.50;1.90;;;;;;;22.96;52.45;100167.01;104305;1274;109438;-72
2022/07/14 07:35:26;;;;;;;5.60;2.30;;;;;;;23.01;52.25;100165.55;104189;1274;138588;-71
2022/07/14 07:37:53;;;;;;;4.30;1.90;;;;;;;23.08;51.92;100167.29;104307;1274;95649;-73
2022/07/14 07:40:21;;;;;;;5.30;1.90;;;;;;;23.13;52.14;100167.32;104191;1275;138351;-73
2022/07/14 07:42:49;;;;;;;5.50;1.90;;;;;;;23.13;51.13;100167.98;104335;1274;99322;-70
2022/07/14 07:45:17;;;;;;;5.00;1.90;;;;;;;23.15;51.18;100170.94;104231;1274;138864;-71
2022/07/14 07:47:45;;;;;;;4.20;1.70;;;;;;;23.15;51.09;100170.00;104328;1274;95549;-71
2022/07/14 07:50:13;;;;;;;4.80;2.00;;;;;;;23.21;50.78;100165.91;104340;1277;95207;-71
2022/07/14 07:52:41;;;;;;;4.70;1.70;;;;;;;23.27;50.04;100164.70;104190;1276;138057;-73
2022/07/14 07:55:11;;;;;;;5.80;2.20;;;;;;;23.37;51.05;100158.08;104288;1277;99434;-71
2022/07/14 07:57:52;;;;;;;4.90;1.80;;;;;;;23.45;50.98;100161.04;104171;1277;138766;-71
2022/07/14 08:00:22;;;;;;;5.00;1.60;;;;;;;23.51;50.25;100161.45;104293;1277;95193;-72
2022/07/14 08:02:53;;;;;;;4.60;1.70;;;;;;;23.52;49.86;100162.95;104365;1276;95294;-71
2022/07/14 08:05:25;;;;;;;4.00;1.60;;;;;;;23.51;49.08;100166.17;104054;1276;138224;-70
2022/07/14 08:08:13;;;;;;;4.70;1.60;;;;;;;23.51;49.35;100163.80;104303;1277;99523;-71
2022/07/14 08:10:42;;;;;;;4.10;1.60;;;;;;;23.55;49.67;100162.50;104016;1276;138170;-71
2022/07/14 08:13:10;;;;;;;4.30;1.50;;;;;;;23.60;49.22;100171.17;104275;1276;95222;-71
2022/07/14 08:15:38;;;;;;;5.20;1.90;;;;;;;23.60;48.74;100169.55;104141;1276;141765;-70
2022/07/14 08:18:07;;;;;;;4.40;1.50;;;;;;;23.61;48.53;100174.57;104282;1277;109673;-71
2022/07/14 08:20:36;;;;;;;5.70;1.70;;;;;;;23.67;48.77;100180.77;104422;1276;99384;-71
2022/07/14 08:23:04;;;;;;;5.40;1.80;;;;;;;23.74;48.56;100176.00;104194;1275;138226;-71
2022/07/14 08:25:33;;;;;;;5.10;1.90;;;;;;;23.77;48.18;100182.42;104199;1276;95204;-72
2022/07/14 08:28:01;;;;;;;6.00;1.70;;;;;;;23.80;48.51;100183.59;104145;1276;138830;-71
2022/07/14 08:30:29;;;;;;;4.80;1.60;;;;;;;23.85;48.50;100178.84;104289;1275;109291;-72
2022/07/14 08:32:58;;;;;;;4.70;1.80;;;;;;;23.91;48.75;100172.52;104479;1276;99486;-72
2022/07/14 08:35:27;;;;;;;5.50;1.80;;;;;;;24.09;48.80;100170.63;104271;1277;138448;-71
2022/07/14 08:37:55;;;;;;;4.80;2.00;;;;;;;24.22;47.78;100171.75;104244;1276;95631;-71
2022/07/14 08:40:26;;;;;;;4.30;1.80;;;;;;;24.24;47.33;100175.16;104132;1276;138569;-72
2022/07/14 08:42:55;;;;;;;6.00;2.00;;;;;;;24.29;47.22;100173.23;104391;1277;108849;-71
2022/07/14 08:45:25;;;;;;;5.20;2.20;;;;;;;24.35;46.94;100179.30;104184;1276;138874;-73
2022/07/14 08:47:54;;;;;;;4.70;2.10;;;;;;;24.44;47.10;100174.34;104342;1277;109349;-72
2022/07/14 08:50:25;;;;;;;6.50;2.30;;;;;;;24.50;45.97;100176.11;104308;1277;95338;-71
2022/07/14 08:52:52;;;;;;;4.50;2.10;;;;;;;24.58;45.35;100174.52;104130;1279;138815;-70
2022/07/14 08:55:21;;;;;;;5.80;2.10;;;;;;;24.68;45.44;100174.82;104320;1277;109078;-72
2022/07/14 08:57:49;;;;;;;5.90;2.20;;;;;;;24.82;45.21;100175.47;104191;1277;138990;-72
2022/07/14 09:00:19;;;;;;;5.60;1.90;;;;;;;24.88;43.28;100176.64;104333;1277;108802;-71
2022/07/14 09:02:50;;;;;;;5.60;2.20;;;;;;;24.99;43.17;100182.00;104096;1276;339387;-72
2022/07/14 09:05:42;;;;;;;7.70;2.80;;;;;;;25.16;43.28;100185.37;104188;1276;95257;-71
2022/07/14 09:08:12;;;;;;;5.10;2.00;;;;;;;25.23;43.47;100188.50;104311;1276;109711;-70
2022/07/14 09:10:42;;;;;;;5.80;2.20;;;;;;;25.04;43.38;100189.88;104243;1277;138572;-70
2022/07/14 09:13:33;;;;;;;5.10;2.10;;;;;;;25.08;43.63;100186.67;104207;1276;109381;-71
2022/07/14 09:16:22;;;;;;;5.30;1.90;;;;;;;25.19;42.37;100184.68;104190;1276;138316;-71
2022/07/14 09:19:09;;;;;;;4.50;1.70;;;;;;;25.33;40.79;100190.21;104382;1275;95705;-72
2022/07/14 09:21:39;;;;;;;5.70;1.70;;;;;;;25.57;40.66;100184.70;104300;1276;138598;-70
2022/07/14 09:24:08;;;;;;;4.80;1.70;;;;;;;25.94;39.81;100183.65;104466;1277;99386;-72
2022/07/14 09:26:53;;;;;;;7.40;2.00;;;;;;;26.17;39.87;100182.22;104268;1277;109156;-71
2022/07/14 09:29:30;;;;;;;4.70;1.50;;;;;;;26.54;38.40;100183.06;104156;1277;138082;-70
2022/07/14 09:31:59;;;;;;;4.50;1.40;;;;;;;26.89;38.13;100179.85;104220;1276;95160;-71
2022/07/14 09:34:32;;;;;;;5.10;1.60;;;;;;;27.35;38.06;100176.04;104378;1277;138685;-70
2022/07/14 09:37:17;;;;;;;4.50;1.40;;;;;;;27.69;36.20;100170.29;103611;1277;99389;-70
2022/07/14 09:39:57;;;;;;;5.40;1.20;;;;;;;28.42;35.73;100171.61;104501;1277;138918;-71
2022/07/14 09:42:57;;;;;;;4.70;1.60;;;;;;;28.99;34.43;100169.64;104291;1277;95601;-72
2022/07/14 09:45:40;;;;;;;4.30;1.20;;;;;;;30.35;33.32;100164.41;104038;1276;138334;-72
2022/07/14 09:48:20;;;;;;;4.60;1.20;;;;;;;31.47;31.22;100171.86;104264;1277;109749;-69
2022/07/14 09:50:48;;;;;;;5.30;1.50;;;;;;;32.09;28.46;100165.89;103947;1274;99399;-70
2022/07/14 09:53:25;;;;;;;4.00;1.30;;;;;;;32.49;29.14;100165.14;103593;1277;138252;-70
2022/07/14 09:56:06;;;;;;;3.90;1.30;;;;;;;33.21;27.38;100157.56;104383;1274;95193;-71
2022/07/14 09:58:51;;;;;;;4.60;1.30;;;;;;;33.73;26.17;100148.52;104273;1277;138960;-71
2022/07/14 10:01:20;;;;;;;4.00;1.30;;;;;;;34.26;25.28;100150.15;104361;1275;108710;-71
2022/07/14 10:03:50;;;;;;;5.90;1.30;;;;;;;34.78;25.09;100159.16;104256;1275;138920;-70
2022/07/14 10:06:19;;;;;;;4.50;1.10;;;;;;;35.41;24.90;100155.45;104354;1274;109127;-70
2022/07/14 10:09:05;;;;;;;5.10;1.10;;;;;;;36.01;23.54;100151.76;104123;1277;138882;-70
2022/07/14 10:11:34;;;;;;;5.10;1.20;;;;;;;36.16;22.31;100155.26;104255;1277;95671;-71
2022/07/14 10:14:03;;;;;;;4.10;1.20;;;;;;;36.41;22.56;100156.70;103729;1276;109706;-70
2022/07/14 10:16:33;;;;;;;4.10;1.00;;;;;;;36.69;22.28;100156.38;104329;1275;138507;-70
2022/07/14 10:19:03;;;;;;;3.90;1.10;;;;;;;36.97;21.34;100161.75;104272;1275;109046;-70
2022/07/14 10:21:43;;;;;;;4.50;0.90;;;;;;;37.04;20.03;100159.20;103759;1275;138573;-70
2022/07/14 10:24:12;;;;;;;6.00;1.20;;;;;;;37.24;20.12;100159.11;104311;1274;95082;-69
2022/07/14 10:26:42;;;;;;;4.70;1.20;;;;;;;37.36;20.55;100158.19;104366;1275;109743;-71
2022/07/14 10:29:10;;;;;;;3.80;1.00;;;;;;;37.57;19.82;100152.76;104184;1277;138949;-70
2022/07/14 10:31:57;;;;;;;3.60;1.00;;;;;;;37.47;19.33;100151.02;104353;1275;108803;-70
2022/07/14 10:34:37;;;;;;;5.10;1.10;;;;;;;37.65;19.42;100152.40;104145;1274;139300;-69
2022/07/14 10:37:13;;;;;;;4.20;1.00;;;;;;;37.76;19.33;100150.95;104279;1277;95234;-71
2022/07/14 10:39:48;;;;;;;3.50;1.10;;;;;;;38.01;19.43;100146.70;104234;1276;138300;-70
2022/07/14 10:42:25;;;;;;;4.30;1.20;;;;;;;38.00;17.86;100148.54;104355;1274;97065;-70
2022/07/14 10:44:54;;;;;;;3.80;1.10;;;;;;;37.96;19.27;100150.59;104239;1274;108313;-69
2022/07/14 10:47:25;;;;;;;4.40;1.10;;;;;;;38.15;18.59;100145.66;104193;1274;139105;-69
2022/07/14 10:50:04;;;;;;;3.90;1.10;;;;;;;38.29;18.29;100149.44;104236;1277;95784;-70
2022/07/14 10:52:38;;;;;;;4.60;1.10;;;;;;;38.60;17.95;100148.03;104260;1277;138750;-70
2022/07/14 10:55:12;;;;;;;4.30;1.00;;;;;;;38.22;17.07;100149.92;104300;1274;99946;-70
2022/07/14 10:57:59;;;;;;;5.30;1.00;;;;;;;37.88;17.07;100154.73;103625;1274;139742;-70
2022/07/14 11:00:55;;;;;;;4.50;1.00;;;;;;;38.07;17.13;100149.68;103644;1275;96453;-70
2022/07/14 11:03:32;;;;;;;4.80;1.00;;;;;;;38.03;16.55;100155.02;104294;1277;138485;-70
2022/07/14 11:06:00;;;;;;;3.60;1.00;;;;;;;37.83;17.03;100161.05;104288;1277;109728;-71
2022/07/14 11:09:18;;;;;;;4.50;0.90;;;;;;;36.82;18.57;100159.00;103693;1277;99757;-70
2022/07/14 11:12:09;;;;;;;3.20;0.70;;;;;;;35.87;19.13;100159.70;103731;1276;108781;-69
2022/07/14 11:14:42;;;;;;;4.40;0.90;;;;;;;34.86;19.00;100154.84;103851;1274;95214;-70
2022/07/14 11:17:37;;;;;;;4.40;0.90;;;;;;;34.09;20.02;100151.45;104201;1275;138650;-70
2022/07/14 11:20:10;;;;;;;6.70;1.40;;;;;;;32.99;20.64;100155.24;104340;1276;110379;-69
2022/07/14 11:22:40;;;;;;;3.80;0.90;;;;;;;32.35;21.90;100155.02;104430;1277;138401;-69
2022/07/14 11:25:25;;;;;;;4.00;1.10;;;;;;;31.71;22.12;100162.91;105134;1277;108732;-70
2022/07/14 11:27:53;;;;;;;4.10;1.00;;;;;;;31.14;23.17;100167.48;104400;1276;139428;-69
2022/07/14 11:30:28;;;;;;;3.80;0.90;;;;;;;30.63;22.87;100164.90;103670;1275;95696;-69
2022/07/14 11:33:01;;;;;;;5.80;1.30;;;;;;;30.14;23.80;100161.11;104011;1274;109687;-70
2022/07/14 11:38:27;;;;;;;3.50;1.10;;;;;;;29.42;24.03;100164.88;104384;1274;108785;-69
2022/07/14 11:40:56;;;;;;;5.10;1.10;;;;;;;29.01;24.81;100164.58;103723;1276;139939;-68